Terminal Aerodrome Forecast
Issued by NWS

Home | Current Version | Previous Version | Text Only | Print | Product List | Glossary On
Versions: 1 2 3 4 5 6 7 8 9 10 11 12 13 14 15 16 17 18 19 20 21
000
FTUS42 KRAH 010637 AAA
TAFINT
TAF AMD
KINT 010637Z 0107/0206 36007KT 5SM -SHRA BR SCT004 SCT015 OVC035
      TEMPO 0107/0111 6SM -SHRA BR BKN004 OVC015
     FM011500 01012G20KT 6SM -SHRA BR SCT015 OVC025
     FM012000 35018G30KT P6SM -SHRA SCT010 OVC030
     FM020300 33015G25KT P6SM SCT030=

USA.gov is the U.S. government's official web portal to all federal, state and local government web resources and services.